createdAt,value
2018-05-03T00:01:16.718Z,47.60
2018-05-03T00:03:20.683Z,47.70
2018-05-03T00:05:25.402Z,47.60
2018-05-03T00:07:29.286Z,47.60
2018-05-03T00:09:33.253Z,47.60
2018-05-03T00:11:37.475Z,47.70
2018-05-03T00:13:42.105Z,49.90
2018-05-03T00:15:46.320Z,49.80
2018-05-03T00:17:51.499Z,51.20
2018-05-03T00:19:56.160Z,50.60
2018-05-03T00:21:59.989Z,50.60
2018-05-03T00:24:06.269Z,51.20
2018-05-03T00:26:10.185Z,51.00
2018-05-03T00:28:14.169Z,51.00
2018-05-03T00:30:18.476Z,52.20
2018-05-03T00:32:23.244Z,53.80
2018-05-03T00:34:27.892Z,54.20
2018-05-03T00:36:33.320Z,54.40
2018-05-03T00:38:37.225Z,54.20
2018-05-03T00:40:41.115Z,54.10
2018-05-03T00:42:45.594Z,54.50
2018-05-03T00:44:49.702Z,55.00
2018-05-03T00:46:53.570Z,54.80
2018-05-03T00:48:57.449Z,54.90
2018-05-03T00:51:02.144Z,55.10
2018-05-03T00:53:06.781Z,54.90
2018-05-03T00:55:11.030Z,54.80
2018-05-03T00:57:14.917Z,54.90
2018-05-03T00:59:18.890Z,55.30
2018-05-03T01:01:22.937Z,54.80
2018-05-03T01:03:27.714Z,55.00
2018-05-03T01:05:31.622Z,55.00
2018-05-03T01:07:36.651Z,55.40
2018-05-03T01:09:40.543Z,55.30
2018-05-03T01:11:44.482Z,55.20
2018-05-03T01:13:48.843Z,54.80
2018-05-03T01:18:19.014Z,54.80
2018-05-03T01:20:23.461Z,55.10
2018-05-03T01:22:27.350Z,55.10
2018-05-03T01:24:32.585Z,54.80
2018-05-03T01:26:38.069Z,54.80
2018-05-03T01:29:14.751Z,55.10
2018-05-03T01:31:18.665Z,55.10
2018-05-03T01:36:28.949Z,54.70
2018-05-03T01:38:33.115Z,54.50
2018-05-03T01:40:39.005Z,54.70
2018-05-03T01:42:42.841Z,54.60
2018-05-03T01:44:46.677Z,54.60
2018-05-03T01:46:56.735Z,56.00
2018-05-03T01:49:01.413Z,55.80
2018-05-03T01:51:08.122Z,55.80
2018-05-03T01:53:13.119Z,55.90
2018-05-03T01:55:16.863Z,55.80
2018-05-03T01:57:21.558Z,56.20
2018-05-03T01:59:25.387Z,56.20
2018-05-03T02:01:29.962Z,56.90
2018-05-03T02:03:33.850Z,56.10
2018-05-03T02:05:38.012Z,56.60
2018-05-03T02:07:43.398Z,56.50
2018-05-03T02:09:47.227Z,56.50
2018-05-03T02:11:52.379Z,56.40
2018-05-03T02:13:56.376Z,56.60
2018-05-03T02:16:00.965Z,56.30
2018-05-03T02:18:05.622Z,56.40
2018-05-03T02:20:09.403Z,56.00
2018-05-03T02:22:13.321Z,56.20
2018-05-03T02:24:18.992Z,56.30
2018-05-03T02:26:24.273Z,56.50
2018-05-03T02:28:29.697Z,56.50
2018-05-03T02:30:35.119Z,56.60
2018-05-03T02:32:40.692Z,56.70
2018-05-03T02:34:44.473Z,57.30
2018-05-03T02:36:50.935Z,57.80
2018-05-03T02:38:57.326Z,57.90
2018-05-03T02:41:01.175Z,57.80
2018-05-03T02:43:07.343Z,57.60
2018-05-03T02:45:13.316Z,57.30
2018-05-03T02:47:17.978Z,56.90
2018-05-03T02:49:23.759Z,57.00
2018-05-03T02:51:28.417Z,56.70
2018-05-03T02:53:34.603Z,56.60
2018-05-03T02:55:39.676Z,56.50
2018-05-03T03:04:19.694Z,56.70
2018-05-03T03:07:35.129Z,56.40
2018-05-03T03:09:47.373Z,56.10
2018-05-03T03:16:14.697Z,57.00
2018-05-03T03:20:37.325Z,57.00
2018-05-03T03:24:56.520Z,56.80
2018-05-03T03:29:46.926Z,56.80
2018-05-03T03:34:05.772Z,57.30
2018-05-03T03:36:52.878Z,57.30
2018-05-03T03:42:12.888Z,56.70
2018-05-03T03:44:28.333Z,56.20
2018-05-03T03:46:32.197Z,56.30
2018-05-03T03:48:36.896Z,56.70
2018-05-03T03:50:41.617Z,56.50
2018-05-03T03:52:48.424Z,56.20
2018-05-03T03:54:53.111Z,55.90
2018-05-03T03:56:57.338Z,55.90
2018-05-03T03:59:01.264Z,55.70
2018-05-03T04:01:06.530Z,55.30
2018-05-03T04:03:10.812Z,55.10
2018-05-03T04:05:16.086Z,54.60
2018-05-03T04:07:20.383Z,54.60
2018-05-03T04:09:24.521Z,54.60
2018-05-03T04:11:28.363Z,54.80
2018-05-03T04:13:32.867Z,55.10
2018-05-03T04:15:37.164Z,55.00
2018-05-03T04:17:49.866Z,54.90
2018-05-03T04:20:04.284Z,54.70
2018-05-03T04:23:12.309Z,54.50
2018-05-03T04:26:23.053Z,54.50
2018-05-03T04:28:29.007Z,54.80
2018-05-03T04:32:37.541Z,54.30
2018-05-03T04:34:42.434Z,55.30
2018-05-03T04:36:46.189Z,54.60
2018-05-03T04:38:49.957Z,54.60
2018-05-03T04:40:53.718Z,54.70
2018-05-03T04:42:57.569Z,54.70
2018-05-03T04:45:03.785Z,54.50
2018-05-03T04:47:08.989Z,54.50
2018-05-03T04:49:12.812Z,54.60
2018-05-03T04:51:16.669Z,54.80
2018-05-03T04:53:21.699Z,54.40
2018-05-03T04:55:25.531Z,54.40
2018-05-03T04:57:30.107Z,54.10
2018-05-03T04:59:35.193Z,54.00
2018-05-03T05:01:39.022Z,54.00
2018-05-03T05:03:42.842Z,54.40
2018-05-03T05:05:46.654Z,54.40
2018-05-03T05:07:50.481Z,54.40
2018-05-03T05:09:55.044Z,54.00
2018-05-03T05:11:58.898Z,54.00
2018-05-03T05:14:02.677Z,53.80
2018-05-03T05:16:06.601Z,53.10
2018-05-03T05:18:11.951Z,53.60
2018-05-03T05:20:16.473Z,53.40
2018-05-03T05:22:20.310Z,53.40
2018-05-03T05:24:25.686Z,53.10
2018-05-03T05:26:30.483Z,52.90
2018-05-03T05:28:34.477Z,53.00
2018-05-03T05:30:43.747Z,52.80
2018-05-03T05:32:47.746Z,52.70
2018-05-03T05:34:51.564Z,52.70
2018-05-03T05:36:55.818Z,52.50
2018-05-03T05:39:00.557Z,51.90
2018-05-03T05:41:05.212Z,51.20
2018-05-03T05:43:09.306Z,51.90
2018-05-03T05:45:16.092Z,50.80
2018-05-03T05:47:21.039Z,50.40
2018-05-03T05:49:26.939Z,50.40
2018-05-03T05:51:31.666Z,50.20
2018-05-03T05:53:35.547Z,50.20
2018-05-03T05:55:39.624Z,50.20
2018-05-03T05:57:44.301Z,50.00
2018-05-03T05:59:48.203Z,49.90
2018-05-03T06:01:52.047Z,50.20
2018-05-03T06:03:55.849Z,50.50
2018-05-03T06:06:00.686Z,50.70
2018-05-03T06:08:04.880Z,50.80
2018-05-03T06:10:08.750Z,50.90
2018-05-03T06:12:13.474Z,51.30
2018-05-03T06:14:18.510Z,51.30
2018-05-03T06:16:22.863Z,51.70
2018-05-03T06:18:26.681Z,51.70
2018-05-03T06:20:32.708Z,51.90
2018-05-03T06:22:37.317Z,48.30
2018-05-03T06:24:41.949Z,48.30
2018-05-03T06:26:45.712Z,48.20
2018-05-03T06:28:50.783Z,47.50
2018-05-03T06:30:54.773Z,47.60
2018-05-03T06:32:59.063Z,47.10
2018-05-03T06:35:03.804Z,47.80
2018-05-03T06:37:07.640Z,47.80
2018-05-03T06:39:11.737Z,47.70
2018-05-03T06:41:15.720Z,48.00
2018-05-03T06:43:20.303Z,47.50
2018-05-03T06:45:25.755Z,47.50
2018-05-03T06:47:29.653Z,46.90
2018-05-03T06:49:33.541Z,46.10
2018-05-03T06:51:38.713Z,45.90
2018-05-03T06:53:42.677Z,46.70
2018-05-03T06:55:46.544Z,47.10
2018-05-03T06:57:52.020Z,47.70
2018-05-03T06:59:55.962Z,47.70
2018-05-03T07:01:59.883Z,47.70
2018-05-03T07:04:04.186Z,47.90
2018-05-03T07:06:07.979Z,47.70
2018-05-03T07:08:11.941Z,48.20
2018-05-03T07:10:16.165Z,48.60
2018-05-03T07:12:20.773Z,48.60
2018-05-03T07:14:27.308Z,48.60
2018-05-03T07:16:31.464Z,48.80
2018-05-03T07:18:35.362Z,48.90
2018-05-03T07:20:51.883Z,49.30
2018-05-03T07:22:56.027Z,49.70
2018-05-03T07:24:59.862Z,50.10
2018-05-03T07:27:04.546Z,50.30
2018-05-03T07:29:09.768Z,50.30
2018-05-03T07:31:13.709Z,50.60
2018-05-03T07:33:17.572Z,50.30
2018-05-03T07:35:21.837Z,49.90
2018-05-03T07:37:26.418Z,50.40
2018-05-03T07:39:30.341Z,50.40
2018-05-03T07:41:34.331Z,50.20
2018-05-03T07:43:39.866Z,50.00
2018-05-03T07:45:44.582Z,49.80
2018-05-03T07:47:49.752Z,49.80
2018-05-03T07:49:56.264Z,50.30
2018-05-03T07:52:00.190Z,50.10
2018-05-03T07:54:04.323Z,50.30
2018-05-03T07:56:09.055Z,50.10
2018-05-03T07:58:13.098Z,50.00
2018-05-03T08:00:18.494Z,49.70
2018-05-03T08:02:22.765Z,50.30
2018-05-03T08:04:28.880Z,50.30
2018-05-03T08:06:34.075Z,49.80
2018-05-03T08:08:39.151Z,49.70
2018-05-03T08:10:43.164Z,49.30
2018-05-03T08:12:47.726Z,49.50
2018-05-03T08:14:51.629Z,49.50
2018-05-03T08:16:57.058Z,48.70
2018-05-03T08:19:02.421Z,48.00
2018-05-03T08:21:06.332Z,48.00
2018-05-03T08:23:11.082Z,48.60
2018-05-03T08:25:23.394Z,48.50
2018-05-03T08:27:28.175Z,47.30
2018-05-03T08:29:32.520Z,47.20
2018-05-03T08:31:36.871Z,47.00
2018-05-03T08:33:40.825Z,46.30
2018-05-03T08:35:44.832Z,46.70
2018-05-03T08:37:48.721Z,46.60
2018-05-03T08:39:52.625Z,46.60
2018-05-03T08:41:56.605Z,46.10
2018-05-03T08:44:00.794Z,45.50
2018-05-03T08:46:07.748Z,46.10
2018-05-03T08:48:11.557Z,46.30
2018-05-03T08:50:21.061Z,45.30
2018-05-03T08:52:25.606Z,44.50
2018-05-03T08:54:30.345Z,44.90
2018-05-03T08:56:34.585Z,44.80
2018-05-03T08:58:38.654Z,44.80
2018-05-03T09:00:42.565Z,44.70
2018-05-03T09:02:46.412Z,44.90
2018-05-03T09:04:50.307Z,44.60
2018-05-03T09:06:54.216Z,44.90
2018-05-03T09:08:59.340Z,44.70
2018-05-03T09:11:03.313Z,44.70
2018-05-03T09:13:08.318Z,44.00
2018-05-03T09:15:15.110Z,44.00
2018-05-03T09:17:20.553Z,43.40
2018-05-03T09:19:24.549Z,43.20
2018-05-03T09:21:28.722Z,44.00
2018-05-03T09:23:32.615Z,44.10
2018-05-03T09:25:36.441Z,43.90
2018-05-03T09:27:41.358Z,44.60
2018-05-03T09:29:45.204Z,44.60
2018-05-03T09:31:49.274Z,44.90
2018-05-03T09:33:53.716Z,45.10
2018-05-03T09:35:59.009Z,44.20
2018-05-03T09:38:02.862Z,44.10
2018-05-03T09:40:08.596Z,43.10
2018-05-03T09:42:13.180Z,43.50
2018-05-03T09:44:17.031Z,43.50
2018-05-03T09:46:21.913Z,42.50
2018-05-03T09:48:25.709Z,42.40
2018-05-03T09:50:29.461Z,41.90
2018-05-03T09:52:34.312Z,42.10
2018-05-03T09:54:38.500Z,42.00
2018-05-03T09:56:42.336Z,42.20
2018-05-03T09:58:49.128Z,41.80
2018-05-03T10:00:53.086Z,42.30
2018-05-03T10:02:57.753Z,43.10
2018-05-03T10:05:02.038Z,43.00
2018-05-03T10:07:06.011Z,42.30
2018-05-03T10:09:10.088Z,42.80
2018-05-03T10:11:18.783Z,41.90
2018-05-03T10:13:23.029Z,42.30
2018-05-03T10:15:26.884Z,41.70
2018-05-03T10:17:31.582Z,40.90
2018-05-03T10:19:37.159Z,40.50
2018-05-03T10:21:41.066Z,40.60
2018-05-03T10:23:45.063Z,40.80
2018-05-03T10:25:49.577Z,40.50
2018-05-03T10:27:54.177Z,38.90
2018-05-03T10:29:57.967Z,38.90
2018-05-03T10:32:04.180Z,39.40
2018-05-03T10:34:08.610Z,38.90
2018-05-03T10:36:12.572Z,38.50
2018-05-03T10:38:17.083Z,38.50
2018-05-03T10:40:20.945Z,38.10
2018-05-03T10:42:24.759Z,38.50
2018-05-03T10:44:28.914Z,38.80
2018-05-03T10:46:35.940Z,37.70
2018-05-03T10:48:39.877Z,36.70
2018-05-03T10:50:45.018Z,35.10
2018-05-03T10:52:50.383Z,34.20
2018-05-03T10:54:54.249Z,34.30
2018-05-03T10:56:59.524Z,34.40
2018-05-03T10:59:04.284Z,35.40
2018-05-03T11:01:09.249Z,35.50
2018-05-03T11:03:13.246Z,36.30
2018-05-03T11:05:17.237Z,36.70
2018-05-03T11:07:21.958Z,36.10
2018-05-03T11:09:27.185Z,36.00
2018-05-03T11:11:31.090Z,35.30
2018-05-03T11:13:34.917Z,33.30
2018-05-03T11:15:39.707Z,34.90
2018-05-03T11:17:43.621Z,36.30
2018-05-03T11:19:47.573Z,35.50
2018-05-03T11:21:51.850Z,36.00
2018-05-03T11:23:56.680Z,36.80
2018-05-03T11:26:00.728Z,36.60
2018-05-03T11:28:04.588Z,36.90
2018-05-03T11:30:08.431Z,37.30
2018-05-03T11:32:12.345Z,37.40
2018-05-03T11:34:16.492Z,38.10
2018-05-03T11:36:21.218Z,39.90
2018-05-03T11:38:25.080Z,39.80
2018-05-03T11:40:29.493Z,40.80
2018-05-03T11:42:33.351Z,40.40
2018-05-03T11:45:06.006Z,40.00
2018-05-03T11:47:10.973Z,39.10
2018-05-03T11:49:14.974Z,39.10
2018-05-03T11:51:18.748Z,37.30
2018-05-03T11:53:23.359Z,38.20
2018-05-03T11:55:28.014Z,38.70
2018-05-03T11:57:31.930Z,38.20
2018-05-03T11:59:36.583Z,37.60
2018-05-03T12:01:40.542Z,36.60
2018-05-03T12:03:45.327Z,36.30
2018-05-03T12:05:51.357Z,35.00
2018-05-03T12:07:55.349Z,35.00
2018-05-03T12:09:59.174Z,34.20
2018-05-03T12:12:03.425Z,34.00
2018-05-03T12:14:08.095Z,34.60
2018-05-03T12:16:12.606Z,34.50
2018-05-03T12:18:16.743Z,33.50
2018-05-03T12:20:20.603Z,33.10
2018-05-03T12:22:25.237Z,33.20
2018-05-03T12:24:30.555Z,33.20
2018-05-03T12:26:34.506Z,31.70
2018-05-03T12:28:38.977Z,31.80
2018-05-03T12:30:44.028Z,32.80
2018-05-03T12:32:47.952Z,32.80
2018-05-03T12:34:52.506Z,34.30
2018-05-03T12:36:56.772Z,34.10
2018-05-03T12:39:00.671Z,34.00
2018-05-03T12:41:04.629Z,34.10
2018-05-03T12:43:09.377Z,33.60
2018-05-03T12:45:15.478Z,32.00
2018-05-03T12:47:19.412Z,31.20
2018-05-03T12:49:23.554Z,31.00
2018-05-03T12:51:27.614Z,30.40
2018-05-03T12:53:31.659Z,30.80
2018-05-03T12:55:35.838Z,30.00
2018-05-03T12:57:40.309Z,29.70
2018-05-03T12:59:44.870Z,30.90
2018-05-03T13:01:51.875Z,30.90
2018-05-03T13:03:55.784Z,31.90
2018-05-03T13:06:00.614Z,31.90
2018-05-03T13:08:07.653Z,32.60
2018-05-03T13:10:11.775Z,32.60
2018-05-03T13:12:16.310Z,32.80
2018-05-03T13:14:21.455Z,33.00
2018-05-03T13:16:26.105Z,32.70
2018-05-03T13:18:30.853Z,32.50
2018-05-03T13:20:34.983Z,32.50
2018-05-03T13:22:39.841Z,32.80
2018-05-03T13:24:43.663Z,32.30
2018-05-03T13:26:47.806Z,31.50
2018-05-03T13:28:52.695Z,32.00
2018-05-03T13:30:56.653Z,31.80
2018-05-03T13:33:00.874Z,31.90
2018-05-03T13:35:04.831Z,31.00
2018-05-03T13:37:08.641Z,30.30
2018-05-03T13:39:12.565Z,30.20
2018-05-03T13:41:20.542Z,29.60
2018-05-03T13:43:24.796Z,29.60
2018-05-03T13:45:32.685Z,29.40
2018-05-03T13:47:36.582Z,29.60
2018-05-03T13:49:41.263Z,28.10
2018-05-03T13:51:46.484Z,28.10
2018-05-03T13:53:50.392Z,28.40
2018-05-03T13:55:54.353Z,28.60
2018-05-03T13:57:59.186Z,28.90
2018-05-03T14:00:05.938Z,28.80
2018-05-03T14:02:09.836Z,29.60
2018-05-03T14:04:13.816Z,30.20
2018-05-03T14:06:17.965Z,30.60
2018-05-03T14:08:22.209Z,29.80
2018-05-03T14:10:26.396Z,29.00
2018-05-03T14:12:30.996Z,27.40
2018-05-03T14:14:34.798Z,27.30
2018-05-03T14:16:40.127Z,27.50
2018-05-03T14:18:43.993Z,28.00
2018-05-03T14:20:47.914Z,27.90
2018-05-03T14:22:52.489Z,28.70
2018-05-03T14:24:57.166Z,29.30
2018-05-03T14:27:01.094Z,29.30
2018-05-03T14:29:05.044Z,28.40
2018-05-03T14:31:08.923Z,28.80
2018-05-03T14:33:12.930Z,29.00
2018-05-03T14:35:17.813Z,28.50
2018-05-03T14:37:21.765Z,28.70
2018-05-03T14:39:25.599Z,27.60
2018-05-03T14:41:29.807Z,28.80
2018-05-03T14:43:34.419Z,29.10
2018-05-03T14:45:38.522Z,29.80
2018-05-03T14:47:43.477Z,28.70
2018-05-03T14:49:48.054Z,28.40
2018-05-03T14:51:53.304Z,28.40
2018-05-03T14:53:57.169Z,28.50
2018-05-03T14:56:01.157Z,28.40
2018-05-03T14:58:05.857Z,28.20
2018-05-03T15:00:10.527Z,29.10
2018-05-03T15:02:14.400Z,29.00
2018-05-03T15:04:18.277Z,29.10
2018-05-03T15:06:23.321Z,29.60
2018-05-03T15:08:28.044Z,29.50
2018-05-03T15:10:31.951Z,29.60
2018-05-03T15:12:38.006Z,30.70
2018-05-03T15:14:44.355Z,30.70
2018-05-03T15:16:50.282Z,32.20
2018-05-03T15:18:59.446Z,32.20
2018-05-03T15:21:07.207Z,33.50
2018-05-03T15:23:11.459Z,33.40
2018-05-03T15:25:18.015Z,32.20
2018-05-03T15:27:24.261Z,32.20
2018-05-03T15:29:34.143Z,30.70
2018-05-03T15:31:39.511Z,30.70
2018-05-03T15:33:44.746Z,30.10
2018-05-03T15:35:49.551Z,30.70
2018-05-03T15:37:53.556Z,30.70
2018-05-03T15:39:58.253Z,30.30
2018-05-03T15:42:02.208Z,30.00
2018-05-03T15:44:06.096Z,29.80
2018-05-03T15:46:10.685Z,29.10
2018-05-03T15:48:15.509Z,28.60
2018-05-03T15:50:19.458Z,28.60
2018-05-03T15:52:24.647Z,28.00
2018-05-03T15:54:29.338Z,28.00
2018-05-03T15:56:33.594Z,28.00
2018-05-03T15:58:38.900Z,28.10
2018-05-03T16:00:42.809Z,27.60
2018-05-03T16:02:46.805Z,27.80
2018-05-03T16:04:51.404Z,28.10
2018-05-03T16:06:55.584Z,28.40
2018-05-03T16:08:59.791Z,28.60
2018-05-03T16:11:05.068Z,28.60
2018-05-03T16:13:08.951Z,28.90
2018-05-03T16:15:15.095Z,28.80
2018-05-03T16:17:20.157Z,28.70
2018-05-03T16:19:24.249Z,29.00
2018-05-03T16:21:29.173Z,29.00
2018-05-03T16:23:34.215Z,28.90
2018-05-03T16:25:40.435Z,28.40
2018-05-03T16:27:45.260Z,28.40
2018-05-03T16:29:55.678Z,28.10
2018-05-03T16:32:01.585Z,27.90
2018-05-03T16:34:06.622Z,27.40
2018-05-03T16:36:11.259Z,27.60
2018-05-03T16:38:16.287Z,27.50
2018-05-03T16:40:21.170Z,27.70
2018-05-03T16:42:25.330Z,27.70
2018-05-03T16:44:34.743Z,28.30
2018-05-03T16:46:38.539Z,28.30
2018-05-03T16:48:43.203Z,28.70
2018-05-03T16:50:47.200Z,28.90
2018-05-03T16:52:51.334Z,29.20
2018-05-03T16:54:55.197Z,29.00
2018-05-03T16:56:59.863Z,29.00
2018-05-03T16:59:03.858Z,29.00
2018-05-03T17:01:08.272Z,29.00
2018-05-03T17:03:13.325Z,29.70
2018-05-03T17:05:17.385Z,29.70
2018-05-03T17:07:21.951Z,29.70
2018-05-03T17:09:25.926Z,29.70
2018-05-03T17:11:30.712Z,29.30
2018-05-03T17:13:35.878Z,29.30
2018-05-03T17:15:40.152Z,28.80
2018-05-03T17:17:44.133Z,28.70
2018-05-03T17:19:48.139Z,29.40
2018-05-03T17:21:52.203Z,30.30
2018-05-03T17:23:56.057Z,31.80
2018-05-03T17:26:00.162Z,33.10
2018-05-03T17:28:04.143Z,34.20
2018-05-03T17:30:10.060Z,35.50
2018-05-03T17:32:16.561Z,35.60
2018-05-03T17:34:20.556Z,35.70
2018-05-03T17:36:24.880Z,35.60
2018-05-03T17:38:30.390Z,35.80
2018-05-03T17:40:36.010Z,37.10
2018-05-03T17:42:39.957Z,36.90
2018-05-03T17:44:43.864Z,37.40
2018-05-03T17:46:49.739Z,38.00
2018-05-03T17:48:54.836Z,38.10
2018-05-03T17:51:00.492Z,38.10
2018-05-03T17:53:05.300Z,38.90
2018-05-03T17:55:09.286Z,38.90
2018-05-03T17:57:15.186Z,38.90
2018-05-03T17:59:19.190Z,39.40
2018-05-03T18:01:24.923Z,39.80
2018-05-03T18:03:32.919Z,39.90
2018-05-03T18:05:42.885Z,40.10
2018-05-03T18:07:48.807Z,40.30
2018-05-03T18:09:53.389Z,40.50
2018-05-03T18:11:59.390Z,41.00
2018-05-03T18:14:05.016Z,41.10
2018-05-03T18:16:10.351Z,41.20
2018-05-03T18:18:15.121Z,41.50
2018-05-03T18:20:19.132Z,41.50
2018-05-03T18:22:25.578Z,41.60
2018-05-03T18:24:29.523Z,41.50
2018-05-03T18:26:33.613Z,41.50
2018-05-03T18:28:37.905Z,41.70
2018-05-03T18:30:41.864Z,41.60
2018-05-03T18:32:46.099Z,41.40
2018-05-03T18:34:52.165Z,41.30
2018-05-03T18:36:56.095Z,41.30
2018-05-03T18:39:00.944Z,41.80
2018-05-03T18:41:07.782Z,41.90
2018-05-03T18:43:12.898Z,41.80
2018-05-03T18:45:17.032Z,42.00
2018-05-03T18:47:22.218Z,42.10
2018-05-03T18:49:26.178Z,42.20
2018-05-03T18:51:30.183Z,42.60
2018-05-03T18:53:34.406Z,42.60
2018-05-03T18:55:38.358Z,42.90
2018-05-03T18:57:42.970Z,43.50
2018-05-03T18:59:47.583Z,43.50
2018-05-03T19:01:51.540Z,43.70
2018-05-03T19:03:55.590Z,44.00
2018-05-03T19:06:00.778Z,43.90
2018-05-03T19:08:04.922Z,43.90
2018-05-03T19:10:08.480Z,43.90
2018-05-03T19:12:12.689Z,43.90
2018-05-03T19:14:17.473Z,44.00
2018-05-03T19:16:21.382Z,44.00
2018-05-03T19:18:25.600Z,44.00
2018-05-03T19:20:29.472Z,43.90
2018-05-03T19:22:33.352Z,43.80
2018-05-03T19:24:37.666Z,43.70
2018-05-03T19:26:41.563Z,43.70
2018-05-03T19:28:45.469Z,43.90
2018-05-03T19:30:50.237Z,44.00
2018-05-03T19:32:54.638Z,44.00
2018-05-03T19:34:59.351Z,44.20
2018-05-03T19:37:11.142Z,44.40
2018-05-03T19:39:15.039Z,44.30
2018-05-03T19:41:19.002Z,44.40
2018-05-03T19:43:23.768Z,44.80
2018-05-03T19:45:27.707Z,44.80
2018-05-03T19:47:31.565Z,45.00
2018-05-03T19:49:36.673Z,45.50
2018-05-03T19:51:40.553Z,45.50
2018-05-03T19:53:44.414Z,45.50
2018-05-03T19:55:49.348Z,45.50
2018-05-03T19:57:53.329Z,45.70
2018-05-03T19:59:58.135Z,45.70
2018-05-03T20:02:04.294Z,45.80
2018-05-03T20:04:08.880Z,45.90
2018-05-03T20:06:12.813Z,45.70
2018-05-03T20:08:17.862Z,45.90
2018-05-03T20:10:21.791Z,45.70
2018-05-03T20:12:26.710Z,46.00
2018-05-03T20:14:31.332Z,46.00
2018-05-03T20:16:35.836Z,46.10
2018-05-03T20:18:40.130Z,45.90
2018-05-03T20:20:45.344Z,46.10
2018-05-03T20:22:50.386Z,46.00
2018-05-03T20:24:54.813Z,45.90
2018-05-03T20:26:58.741Z,45.80
2018-05-03T20:29:02.761Z,45.70
2018-05-03T20:31:06.693Z,45.70
2018-05-03T20:33:11.684Z,45.80
2018-05-03T20:35:15.590Z,45.80
2018-05-03T20:37:19.758Z,45.90
2018-05-03T20:39:24.325Z,45.90
2018-05-03T20:41:29.025Z,45.90
2018-05-03T20:43:33.702Z,45.70
2018-05-03T20:45:37.535Z,45.70
2018-05-03T20:47:41.464Z,45.50
2018-05-03T20:49:45.321Z,45.30
2018-05-03T20:51:51.337Z,45.40
2018-05-03T20:53:56.846Z,45.30
2018-05-03T20:56:01.088Z,45.30
2018-05-03T20:58:06.088Z,45.50
2018-05-03T21:00:10.105Z,45.50
2018-05-03T21:02:14.830Z,45.30
2018-05-03T21:04:19.151Z,45.20
2018-05-03T21:06:24.098Z,45.30
2018-05-03T21:08:29.050Z,45.50
2018-05-03T21:10:33.359Z,45.30
2018-05-03T21:12:37.256Z,45.30
2018-05-03T21:14:41.229Z,45.40
2018-05-03T21:16:46.125Z,45.40
2018-05-03T21:18:50.759Z,45.40
2018-05-03T21:20:55.026Z,45.40
2018-05-03T21:22:59.145Z,45.40
2018-05-03T21:25:03.623Z,45.30
2018-05-03T21:27:07.496Z,45.40
2018-05-03T21:29:12.513Z,45.30
2018-05-03T21:31:16.393Z,45.30
2018-05-03T21:33:20.389Z,45.20
2018-05-03T21:35:25.610Z,45.20
2018-05-03T21:37:29.494Z,45.20
2018-05-03T21:39:34.195Z,45.50
2018-05-03T21:41:38.184Z,45.50
2018-05-03T21:43:42.008Z,45.40
2018-05-03T21:45:45.812Z,45.60
2018-05-03T21:47:50.826Z,45.80
2018-05-03T21:49:55.557Z,45.70
2018-05-03T21:51:59.438Z,45.70
2018-05-03T21:54:04.598Z,45.70
2018-05-03T21:56:08.491Z,46.00
2018-05-03T21:58:12.325Z,46.10
2018-05-03T22:00:16.459Z,46.10
2018-05-03T22:02:21.295Z,46.30
2018-05-03T22:04:25.293Z,46.30
2018-05-03T22:06:29.200Z,46.40
2018-05-03T22:08:33.101Z,46.50
2018-05-03T22:10:36.935Z,46.40
2018-05-03T22:12:41.142Z,46.50
2018-05-03T22:14:45.024Z,46.80
2018-05-03T22:16:48.846Z,46.70
2018-05-03T22:18:53.703Z,46.80
2018-05-03T22:20:57.546Z,46.70
2018-05-03T22:23:01.640Z,46.90
2018-05-03T22:25:08.769Z,47.00
2018-05-03T22:27:12.783Z,47.00
2018-05-03T22:29:16.626Z,46.90
2018-05-03T22:31:21.365Z,47.90
2018-05-03T22:33:26.587Z,47.90
2018-05-03T22:35:30.426Z,47.10
2018-05-03T22:37:34.237Z,47.10
2018-05-03T22:39:38.181Z,47.30
2018-05-03T22:41:42.018Z,47.30
2018-05-03T22:43:47.972Z,47.30
2018-05-03T22:45:52.643Z,47.30
2018-05-03T22:47:56.472Z,47.30
2018-05-03T22:50:01.021Z,47.20
2018-05-03T22:52:07.370Z,47.30
2018-05-03T22:54:11.440Z,47.20
2018-05-03T22:56:15.790Z,47.30
2018-05-03T22:58:19.656Z,47.30
2018-05-03T23:00:23.518Z,47.30
2018-05-03T23:02:28.284Z,47.20
2018-05-03T23:04:32.232Z,47.20
2018-05-03T23:06:36.148Z,47.20
2018-05-03T23:08:41.152Z,47.60
2018-05-03T23:10:44.981Z,47.60
2018-05-03T23:12:48.856Z,47.50
2018-05-03T23:14:53.002Z,47.30
2018-05-03T23:16:57.593Z,48.50
2018-05-03T23:19:02.388Z,47.80
2018-05-03T23:21:08.551Z,47.80
2018-05-03T23:23:12.425Z,47.80
2018-05-03T23:25:17.166Z,48.00
2018-05-03T23:27:21.614Z,48.10
2018-05-03T23:29:26.030Z,48.20
2018-05-03T23:31:29.921Z,48.00
2018-05-03T23:33:34.330Z,47.90
2018-05-03T23:35:38.189Z,48.00
2018-05-03T23:37:42.012Z,48.00
2018-05-03T23:39:47.120Z,48.00
2018-05-03T23:41:51.988Z,47.80
2018-05-03T23:43:55.832Z,47.80
2018-05-03T23:46:01.223Z,47.80
2018-05-03T23:48:05.087Z,47.70
2018-05-03T23:50:08.912Z,47.70
2018-05-03T23:52:13.613Z,47.80
2018-05-03T23:54:17.525Z,47.80
2018-05-03T23:56:21.376Z,47.80
2018-05-03T23:58:25.660Z,47.70
